Time;durP1;ratioP1;P1;durP2;ratioP2;P2;SDS_P1;SDS_P2;PMS_P1;PMS_P2;Temp;Humidity;BMP_temperature;BMP_pressure;BME280_temperature;BME280_humidity;BME280_pressure;Samples;Min_cycle;Max_cycle;Signal;HPM_P1;HPM_P2
2022/05/06 00:00:30;;;;;;;10.45;5.43;;;;;;;;;;5066500;28;20060;-79
2022/05/06 00:02:58;;;;;;;9.85;5.35;;;;;;;;;;5067709;28;20118;-80
2022/05/06 00:05:26;;;;;;;10.13;5.57;;;;;;;;;;5050349;28;20052;-78
2022/05/06 00:07:54;;;;;;;10.32;5.45;;;;;;;;;;5064891;28;20045;-80
2022/05/06 00:10:22;;;;;;;10.60;5.22;;;;;;;;;;5066118;28;20470;-79
2022/05/06 00:12:50;;;;;;;10.35;5.30;;;;;;;;;;5049272;28;20059;-78
2022/05/06 00:15:18;;;;;;;9.05;4.78;;;;;;;;;;5054714;28;20048;-78
2022/05/06 00:17:46;;;;;;;12.52;5.05;;;;;;;;;;5065198;28;20071;-78
2022/05/06 00:20:14;;;;;;;11.55;5.65;;;;;;;;;;5067521;28;20398;-79
2022/05/06 00:22:43;;;;;;;10.85;5.28;;;;;;;;;;5066619;28;20139;-79
2022/05/06 00:25:12;;;;;;;9.85;5.38;;;;;;;;;;5066801;28;20045;-79
2022/05/06 00:27:41;;;;;;;14.25;5.63;;;;;;;;;;5064403;28;20052;-79
2022/05/06 00:30:10;;;;;;;10.10;5.15;;;;;;;;;;5054489;28;20105;-79
2022/05/06 00:32:38;;;;;;;9.57;5.63;;;;;;;;;;5060631;28;20068;-80
2022/05/06 00:35:06;;;;;;;10.23;5.55;;;;;;;;;;5034474;28;20055;-82
2022/05/06 00:37:34;;;;;;;12.65;5.65;;;;;;;;;;5078704;28;20079;-82
2022/05/06 00:40:03;;;;;;;9.60;6.38;;;;;;;;;;5061394;28;20138;-83
2022/05/06 00:42:30;;;;;;;13.30;6.40;;;;;;;;;;5058246;28;20119;-83
2022/05/06 00:44:58;;;;;;;12.00;6.65;;;;;;;;;;5078527;28;20525;-84
2022/05/06 00:47:28;;;;;;;13.15;5.80;;;;;;;;;;5052215;28;20060;-84
2022/05/06 00:49:56;;;;;;;13.27;6.40;;;;;;;;;;5055303;28;20675;-84
2022/05/06 00:52:24;;;;;;;11.88;6.63;;;;;;;;;;5054278;28;20052;-82
2022/05/06 00:54:52;;;;;;;14.63;6.82;;;;;;;;;;5073134;28;20079;-81
2022/05/06 00:57:20;;;;;;;13.48;6.75;;;;;;;;;;5051442;28;20052;-81
2022/05/06 01:02:34;;;;;;;12.93;6.40;;;;;;;;;;5071549;28;20068;-81
2022/05/06 01:05:04;;;;;;;12.57;5.50;;;;;;;;;;5055183;28;20417;-83
2022/05/06 01:07:32;;;;;;;11.75;5.72;;;;;;;;;;5074457;28;20045;-82
2022/05/06 01:10:00;;;;;;;12.13;6.32;;;;;;;;;;5076882;28;20052;-83
2022/05/06 01:12:28;;;;;;;12.05;6.25;;;;;;;;;;5072756;28;20583;-82
2022/05/06 01:14:56;;;;;;;12.13;6.18;;;;;;;;;;5072745;28;20057;-85
2022/05/06 01:17:32;;;;;;;12.68;6.03;;;;;;;;;;5053134;28;20127;-85
2022/05/06 01:20:00;;;;;;;12.70;5.75;;;;;;;;;;5051386;28;20549;-85
2022/05/06 01:22:28;;;;;;;11.80;5.70;;;;;;;;;;5073917;28;20135;-85
2022/05/06 01:24:56;;;;;;;12.60;5.95;;;;;;;;;;5058547;28;20073;-86
2022/05/06 01:27:28;;;;;;;11.25;5.20;;;;;;;;;;5056146;28;20048;-87
2022/05/06 01:29:56;;;;;;;11.10;5.60;;;;;;;;;;5057633;28;20111;-86
2022/05/06 01:32:27;;;;;;;13.27;5.82;;;;;;;;;;5044791;28;20558;-86
2022/05/06 01:34:55;;;;;;;13.35;6.15;;;;;;;;;;5071483;28;20053;-85
2022/05/06 01:37:27;;;;;;;13.25;6.65;;;;;;;;;;5054912;28;20048;-85
2022/05/06 01:40:00;;;;;;;10.18;5.85;;;;;;;;;;5065844;28;20048;-86
2022/05/06 01:42:34;;;;;;;12.25;5.78;;;;;;;;;;5064396;28;20052;-87
2022/05/06 01:45:10;;;;;;;11.48;5.30;;;;;;;;;;5077532;28;20063;-88
2022/05/06 01:47:40;;;;;;;9.85;5.75;;;;;;;;;;5062792;28;20509;-88
2022/05/06 01:50:12;;;;;;;15.00;5.80;;;;;;;;;;5058715;28;20139;-88
2022/05/06 01:52:41;;;;;;;11.13;6.10;;;;;;;;;;5058308;28;20045;-84
2022/05/06 01:55:12;;;;;;;11.82;6.07;;;;;;;;;;5058713;28;20468;-85
2022/05/06 01:58:14;;;;;;;10.27;5.45;;;;;;;;;;5011689;28;20054;-85
2022/05/06 02:00:48;;;;;;;12.50;5.57;;;;;;;;;;5017180;28;20050;-85
2022/05/06 02:06:11;;;;;;;12.35;5.90;;;;;;;;;;4997485;28;20061;-82
2022/05/06 02:08:42;;;;;;;9.90;5.53;;;;;;;;;;5014400;28;20046;-81
2022/05/06 02:11:16;;;;;;;11.95;5.32;;;;;;;;;;4997178;28;20058;-84
2022/05/06 02:13:46;;;;;;;11.52;5.70;;;;;;;;;;5012830;28;20078;-84
2022/05/06 02:16:30;;;;;;;12.38;5.70;;;;;;;;;;5013395;28;20555;-81
2022/05/06 02:19:24;;;;;;;12.45;5.50;;;;;;;;;;5014913;28;20412;-83
2022/05/06 02:22:02;;;;;;;10.38;5.28;;;;;;;;;;4999521;28;20058;-82
2022/05/06 02:24:57;;;;;;;10.48;5.63;;;;;;;;;;5005759;28;20058;-84
2022/05/06 02:27:44;;;;;;;9.35;5.57;;;;;;;;;;4992307;28;20057;-85
2022/05/06 02:33:23;;;;;;;11.93;6.00;;;;;;;;;;5059471;28;20067;-84
2022/05/06 02:35:59;;;;;;;13.32;5.60;;;;;;;;;;5071251;28;20140;-83
2022/05/06 02:38:30;;;;;;;10.90;5.43;;;;;;;;;;5073686;28;20052;-84
2022/05/06 02:40:59;;;;;;;11.52;5.38;;;;;;;;;;5042438;28;20189;-83
2022/05/06 02:43:32;;;;;;;10.98;5.68;;;;;;;;;;5055437;28;20048;-83
2022/05/06 02:46:00;;;;;;;11.57;5.45;;;;;;;;;;5061338;28;20056;-84
2022/05/06 02:48:28;;;;;;;10.80;5.60;;;;;;;;;;5069980;28;20625;-84
2022/05/06 02:50:56;;;;;;;12.18;5.60;;;;;;;;;;5064777;28;20061;-83
2022/05/06 02:53:32;;;;;;;12.25;5.72;;;;;;;;;;5055559;28;20057;-84
2022/05/06 02:56:02;;;;;;;11.52;6.25;;;;;;;;;;5038299;28;20057;-83
2022/05/06 02:58:40;;;;;;;13.43;6.55;;;;;;;;;;5057245;28;20123;-83
2022/05/06 03:01:08;;;;;;;11.27;5.75;;;;;;;;;;5061471;28;20051;-83
2022/05/06 03:03:38;;;;;;;16.05;6.32;;;;;;;;;;5051722;28;20162;-84
2022/05/06 03:06:12;;;;;;;13.68;6.55;;;;;;;;;;5057355;28;20087;-86
2022/05/06 03:08:40;;;;;;;10.55;5.53;;;;;;;;;;5052282;28;20041;-86
2022/05/06 03:11:08;;;;;;;12.27;5.85;;;;;;;;;;5062864;28;20227;-78
2022/05/06 03:13:44;;;;;;;12.63;5.90;;;;;;;;;;5062084;28;20501;-78
2022/05/06 03:16:16;;;;;;;11.45;5.00;;;;;;;;;;5042570;28;20116;-82
2022/05/06 03:18:44;;;;;;;12.15;5.65;;;;;;;;;;5054317;28;20045;-82
2022/05/06 03:21:12;;;;;;;12.23;6.47;;;;;;;;;;5052052;28;20059;-82
2022/05/06 03:23:40;;;;;;;12.90;6.13;;;;;;;;;;5066321;28;20049;-82
2022/05/06 03:26:08;;;;;;;12.57;5.97;;;;;;;;;;5075097;28;20053;-83
2022/05/06 03:28:36;;;;;;;12.43;6.05;;;;;;;;;;5055143;28;20103;-83
2022/05/06 03:31:04;;;;;;;12.20;5.93;;;;;;;;;;5072619;28;20048;-86
2022/05/06 03:33:36;;;;;;;13.38;6.22;;;;;;;;;;5056730;28;20456;-86
2022/05/06 03:36:15;;;;;;;12.85;6.13;;;;;;;;;;5052435;28;20417;-86
2022/05/06 03:39:06;;;;;;;16.95;5.88;;;;;;;;;;5071382;28;20111;-86
2022/05/06 03:41:42;;;;;;;10.82;5.85;;;;;;;;;;5061130;28;20056;-86
2022/05/06 03:44:10;;;;;;;15.85;6.60;;;;;;;;;;5061260;28;20053;-86
2022/05/06 03:46:42;;;;;;;14.88;6.60;;;;;;;;;;5053292;28;20136;-87
2022/05/06 03:49:16;;;;;;;12.85;5.72;;;;;;;;;;5051581;28;20060;-77
2022/05/06 03:51:47;;;;;;;15.88;6.30;;;;;;;;;;5056978;28;20055;-77
2022/05/06 03:54:18;;;;;;;14.93;6.45;;;;;;;;;;5063774;28;20088;-77
2022/05/06 03:56:46;;;;;;;11.45;6.35;;;;;;;;;;5048226;28;20448;-77
2022/05/06 03:59:14;;;;;;;13.60;6.32;;;;;;;;;;5045117;28;20067;-78
2022/05/06 04:01:47;;;;;;;14.45;6.00;;;;;;;;;;5063149;28;20410;-77
2022/05/06 04:04:26;;;;;;;11.63;6.47;;;;;;;;;;5060328;28;20143;-77
2022/05/06 04:06:55;;;;;;;15.57;5.40;;;;;;;;;;5049898;28;20098;-78
2022/05/06 04:09:24;;;;;;;14.40;6.15;;;;;;;;;;5060030;28;20049;-77
2022/05/06 04:11:51;;;;;;;10.50;5.63;;;;;;;;;;5060345;28;20059;-77
2022/05/06 04:14:20;;;;;;;11.48;6.30;;;;;;;;;;5044344;28;20049;-78
2022/05/06 04:16:50;;;;;;;14.60;5.88;;;;;;;;;;5044878;28;20051;-78
2022/05/06 04:19:35;;;;;;;15.90;6.53;;;;;;;;;;5060737;28;20059;-77
2022/05/06 04:25:04;;;;;;;12.57;6.15;;;;;;;;;;5070584;28;20090;-86
2022/05/06 04:27:33;;;;;;;12.57;5.85;;;;;;;;;;5061143;28;20079;-86
2022/05/06 04:30:02;;;;;;;13.77;6.68;;;;;;;;;;5058415;28;20615;-86
2022/05/06 04:32:42;;;;;;;16.90;7.50;;;;;;;;;;5037465;28;20064;-86
2022/05/06 04:35:15;;;;;;;16.60;7.68;;;;;;;;;;5045419;28;20049;-85
2022/05/06 04:37:43;;;;;;;16.35;7.43;;;;;;;;;;5060258;28;20063;-86
2022/05/06 04:40:12;;;;;;;16.98;7.82;;;;;;;;;;5061575;28;20083;-86
2022/05/06 04:42:39;;;;;;;20.23;8.93;;;;;;;;;;5046878;28;20048;-86
2022/05/06 04:45:08;;;;;;;21.23;8.50;;;;;;;;;;5065183;28;20060;-86
2022/05/06 04:47:41;;;;;;;20.02;8.60;;;;;;;;;;5058925;28;20056;-86
2022/05/06 04:50:09;;;;;;;24.77;9.35;;;;;;;;;;5061040;28;20053;-86
2022/05/06 04:52:37;;;;;;;19.60;8.90;;;;;;;;;;5058082;28;20502;-87
2022/05/06 04:55:06;;;;;;;21.88;9.45;;;;;;;;;;5058975;28;20047;-87
2022/05/06 04:57:33;;;;;;;18.45;8.70;;;;;;;;;;5063806;28;20060;-85
2022/05/06 05:00:03;;;;;;;20.10;8.70;;;;;;;;;;5022724;28;20053;-86
2022/05/06 05:02:33;;;;;;;17.17;8.63;;;;;;;;;;5042015;28;20080;-86
2022/05/06 05:05:03;;;;;;;18.30;8.93;;;;;;;;;;5042902;28;20063;-86
2022/05/06 05:07:34;;;;;;;25.77;8.50;;;;;;;;;;5071613;28;20048;-86
2022/05/06 05:10:02;;;;;;;22.60;8.82;;;;;;;;;;5048592;28;20398;-79
2022/05/06 05:12:31;;;;;;;21.80;9.00;;;;;;;;;;5044751;28;20055;-79
2022/05/06 05:14:59;;;;;;;19.75;8.88;;;;;;;;;;5062194;28;20079;-79
2022/05/06 05:17:31;;;;;;;19.02;8.63;;;;;;;;;;5045828;28;20048;-78
2022/05/06 05:20:00;;;;;;;22.45;9.75;;;;;;;;;;5044443;28;20053;-78
2022/05/06 05:22:32;;;;;;;22.67;8.38;;;;;;;;;;5062169;28;20117;-79
2022/05/06 05:25:05;;;;;;;19.67;8.82;;;;;;;;;;5062236;28;20053;-79
2022/05/06 05:27:38;;;;;;;18.73;8.48;;;;;;;;;;5062019;28;20421;-78
2022/05/06 05:30:10;;;;;;;20.80;9.45;;;;;;;;;;5045776;28;20433;-78
2022/05/06 05:32:39;;;;;;;21.35;9.23;;;;;;;;;;5066092;28;20065;-79
2022/05/06 05:35:10;;;;;;;28.27;9.77;;;;;;;;;;5053537;28;20756;-78
2022/05/06 05:37:42;;;;;;;20.80;10.05;;;;;;;;;;5071193;28;20072;-80
2022/05/06 05:40:10;;;;;;;21.58;9.55;;;;;;;;;;5066216;28;20071;-81
2022/05/06 05:42:40;;;;;;;25.52;9.38;;;;;;;;;;5043991;28;20057;-79
2022/05/06 05:50:47;;;;;;;28.58;11.75;;;;;;;;;;5068395;28;20237;-80
2022/05/06 05:53:18;;;;;;;24.85;10.48;;;;;;;;;;5053121;28;20060;-79
2022/05/06 05:55:48;;;;;;;29.50;11.35;;;;;;;;;;5042029;28;20053;-81
2022/05/06 05:58:20;;;;;;;30.08;11.43;;;;;;;;;;5050901;28;20638;-80
2022/05/06 06:00:50;;;;;;;29.33;11.20;;;;;;;;;;5067699;28;20070;-80
2022/05/06 06:03:20;;;;;;;25.45;11.00;;;;;;;;;;5058347;28;20048;-80
2022/05/06 06:05:48;;;;;;;30.73;12.05;;;;;;;;;;5055130;28;20143;-80
2022/05/06 06:08:16;;;;;;;33.30;13.45;;;;;;;;;;5049591;28;20261;-80
2022/05/06 06:10:49;;;;;;;34.03;13.07;;;;;;;;;;5064284;28;20505;-80
2022/05/06 06:13:16;;;;;;;31.60;13.30;;;;;;;;;;5041831;28;20052;-80
2022/05/06 06:15:46;;;;;;;31.05;12.60;;;;;;;;;;5069235;28;20134;-78
2022/05/06 06:18:15;;;;;;;30.33;12.38;;;;;;;;;;5049394;28;20139;-79
2022/05/06 06:20:44;;;;;;;28.50;12.77;;;;;;;;;;5048968;28;20139;-79
2022/05/06 06:23:12;;;;;;;35.05;13.15;;;;;;;;;;5067659;28;20504;-79
2022/05/06 06:25:40;;;;;;;36.00;13.82;;;;;;;;;;5049806;28;20074;-79
2022/05/06 06:28:11;;;;;;;36.58;14.00;;;;;;;;;;5054756;28;20053;-79
2022/05/06 06:30:40;;;;;;;30.67;12.43;;;;;;;;;;5047033;28;20135;-79
2022/05/06 06:33:08;;;;;;;36.72;13.68;;;;;;;;;;5064196;28;20381;-79
2022/05/06 06:35:38;;;;;;;32.40;13.43;;;;;;;;;;5063213;28;20144;-79
2022/05/06 06:38:06;;;;;;;33.97;13.90;;;;;;;;;;5070000;28;20048;-82
2022/05/06 06:40:38;;;;;;;37.67;14.38;;;;;;;;;;5046295;28;20127;-81
2022/05/06 06:43:07;;;;;;;33.63;13.35;;;;;;;;;;5052374;28;20137;-81
2022/05/06 06:45:52;;;;;;;36.78;14.38;;;;;;;;;;5069395;28;20118;-81
2022/05/06 06:48:52;;;;;;;32.83;14.10;;;;;;;;;;4972045;28;20051;-80
2022/05/06 06:51:48;;;;;;;38.85;15.38;;;;;;;;;;4955316;28;20062;-81
2022/05/06 06:54:16;;;;;;;36.05;15.38;;;;;;;;;;4971773;28;20058;-80
2022/05/06 06:56:48;;;;;;;38.88;17.20;;;;;;;;;;4970806;28;20063;-82
2022/05/06 06:59:16;;;;;;;38.55;14.93;;;;;;;;;;4970514;28;20137;-81
2022/05/06 07:01:48;;;;;;;43.85;16.60;;;;;;;;;;4969764;28;20098;-80
2022/05/06 07:04:16;;;;;;;39.25;16.40;;;;;;;;;;4971605;28;20080;-80
2022/05/06 07:12:20;;;;;;;30.85;14.00;;;;;;;;;;4970230;28;20073;-80
2022/05/06 07:14:51;;;;;;;36.67;14.73;;;;;;;;;;4971935;28;20500;-81
2022/05/06 07:17:18;;;;;;;31.67;14.85;;;;;;;;;;4971894;28;20069;-80
2022/05/06 07:19:48;;;;;;;28.88;13.68;;;;;;;;;;4970057;28;20142;-80
2022/05/06 07:22:16;;;;;;;33.63;14.30;;;;;;;;;;4970518;28;20066;-80
2022/05/06 07:24:54;;;;;;;29.75;14.02;;;;;;;;;;5009856;28;20053;-80
2022/05/06 07:27:23;;;;;;;28.95;14.13;;;;;;;;;;5062249;28;20071;-80
2022/05/06 07:29:50;;;;;;;30.80;13.95;;;;;;;;;;5061184;28;20107;-80
2022/05/06 07:32:18;;;;;;;30.48;13.30;;;;;;;;;;5066842;28;20067;-80
2022/05/06 07:34:48;;;;;;;35.80;15.07;;;;;;;;;;5069293;28;20045;-80
2022/05/06 07:37:17;;;;;;;30.40;14.07;;;;;;;;;;5069320;28;20059;-80
2022/05/06 07:39:44;;;;;;;32.25;15.52;;;;;;;;;;5057895;28;20044;-80
2022/05/06 07:42:12;;;;;;;31.25;14.07;;;;;;;;;;5069665;28;20071;-80
2022/05/06 07:44:41;;;;;;;27.38;13.13;;;;;;;;;;5055570;28;20053;-80
2022/05/06 07:47:12;;;;;;;32.85;13.88;;;;;;;;;;5032635;28;20072;-81
2022/05/06 07:49:43;;;;;;;28.15;13.88;;;;;;;;;;5049181;28;20049;-80
2022/05/06 07:52:10;;;;;;;30.23;14.07;;;;;;;;;;5057325;28;20096;-80
2022/05/06 07:54:38;;;;;;;29.27;13.35;;;;;;;;;;5066182;28;20049;-81
2022/05/06 07:57:08;;;;;;;35.58;14.48;;;;;;;;;;5047252;28;20128;-78
2022/05/06 07:59:38;;;;;;;31.50;14.90;;;;;;;;;;5060761;28;20133;-78
2022/05/06 08:04:59;;;;;;;26.25;12.75;;;;;;;;;;5057815;28;20063;-78
2022/05/06 08:07:30;;;;;;;27.42;12.65;;;;;;;;;;5056915;28;20167;-78
2022/05/06 08:09:58;;;;;;;30.35;13.82;;;;;;;;;;5059910;28;20506;-80
2022/05/06 08:12:26;;;;;;;28.20;13.45;;;;;;;;;;5058857;28;20057;-79
2022/05/06 08:14:54;;;;;;;28.58;13.30;;;;;;;;;;5058383;28;20076;-78
2022/05/06 08:17:23;;;;;;;30.23;13.20;;;;;;;;;;5058134;28;20098;-78
2022/05/06 08:19:50;;;;;;;26.00;12.82;;;;;;;;;;5059525;28;20052;-78
2022/05/06 08:22:18;;;;;;;23.85;11.57;;;;;;;;;;5059848;28;20049;-79
2022/05/06 08:24:47;;;;;;;26.52;11.57;;;;;;;;;;5060098;28;20048;-80
2022/05/06 08:27:42;;;;;;;21.60;11.27;;;;;;;;;;5059150;28;20137;-78
2022/05/06 08:30:12;;;;;;;22.15;10.65;;;;;;;;;;5058900;28;20059;-78
2022/05/06 08:32:40;;;;;;;21.42;11.55;;;;;;;;;;5051843;28;20060;-79
2022/05/06 08:35:09;;;;;;;23.98;11.50;;;;;;;;;;5059233;28;20114;-78
2022/05/06 08:37:48;;;;;;;21.27;10.85;;;;;;;;;;5042447;28;20079;-77
2022/05/06 08:40:23;;;;;;;23.15;12.77;;;;;;;;;;5059921;28;20052;-78
2022/05/06 08:42:50;;;;;;;29.58;13.18;;;;;;;;;;5058038;28;20056;-78
2022/05/06 08:50:59;;;;;;;25.88;11.68;;;;;;;;;;5061192;28;20045;-78
2022/05/06 08:53:31;;;;;;;23.83;12.02;;;;;;;;;;5059171;28;20623;-78
2022/05/06 08:56:02;;;;;;;27.25;12.60;;;;;;;;;;5057976;28;20060;-78
2022/05/06 08:58:33;;;;;;;25.23;12.80;;;;;;;;;;5058948;28;20044;-78
2022/05/06 09:01:10;;;;;;;21.08;11.35;;;;;;;;;;5058847;28;20044;-78
2022/05/06 09:03:44;;;;;;;19.65;11.52;;;;;;;;;;5059552;28;20964;-78
2022/05/06 09:06:17;;;;;;;22.73;10.02;;;;;;;;;;5058277;28;20139;-78
2022/05/06 09:08:45;;;;;;;19.80;9.27;;;;;;;;;;5060020;28;20481;-78
2022/05/06 09:11:12;;;;;;;16.52;9.98;;;;;;;;;;5056437;28;20153;-78
2022/05/06 09:13:49;;;;;;;19.63;9.82;;;;;;;;;;5059786;28;20127;-78
2022/05/06 09:19:12;;;;;;;18.65;9.40;;;;;;;;;;5059765;28;20053;-78
2022/05/06 09:21:58;;;;;;;17.25;9.38;;;;;;;;;;5059875;28;20851;-78
2022/05/06 09:24:28;;;;;;;17.40;8.60;;;;;;;;;;5063269;28;20837;-78
2022/05/06 09:27:11;;;;;;;15.90;9.70;;;;;;;;;;5062867;28;20123;-78
2022/05/06 09:29:44;;;;;;;18.85;9.75;;;;;;;;;;5043988;28;21002;-78
2022/05/06 09:32:16;;;;;;;16.58;9.13;;;;;;;;;;5061377;28;20045;-78
2022/05/06 09:34:48;;;;;;;18.33;9.27;;;;;;;;;;5061934;28;20054;-78
2022/05/06 09:37:40;;;;;;;14.65;8.25;;;;;;;;;;5062744;28;20048;-78
2022/05/06 09:40:20;;;;;;;16.00;7.80;;;;;;;;;;5062311;28;20052;-79
2022/05/06 09:42:54;;;;;;;14.68;7.68;;;;;;;;;;5063846;28;20053;-79
2022/05/06 09:45:32;;;;;;;16.33;8.27;;;;;;;;;;5047756;28;20084;-79
2022/05/06 09:48:13;;;;;;;11.82;6.38;;;;;;;;;;5062463;28;20125;-80
2022/05/06 09:50:41;;;;;;;13.43;7.55;;;;;;;;;;5065449;28;20509;-79
2022/05/06 09:53:17;;;;;;;13.75;7.13;;;;;;;;;;5058786;28;20152;-79
2022/05/06 09:55:47;;;;;;;12.30;6.75;;;;;;;;;;5047595;28;20067;-81
2022/05/06 09:58:16;;;;;;;15.23;7.53;;;;;;;;;;5052152;28;20048;-78
2022/05/06 10:00:44;;;;;;;11.63;6.63;;;;;;;;;;5061490;28;20132;-78
2022/05/06 10:03:12;;;;;;;12.90;6.10;;;;;;;;;;5062108;28;20053;-78
2022/05/06 10:05:40;;;;;;;12.40;5.72;;;;;;;;;;5063642;28;20078;-79
2022/05/06 10:08:14;;;;;;;13.32;6.32;;;;;;;;;;5064687;28;20402;-78
2022/05/06 10:10:54;;;;;;;11.48;6.07;;;;;;;;;;5035694;28;20506;-79
2022/05/06 10:13:28;;;;;;;13.30;6.38;;;;;;;;;;5064970;28;20052;-80
2022/05/06 10:15:58;;;;;;;16.25;7.13;;;;;;;;;;5069304;28;20058;-80
2022/05/06 10:18:40;;;;;;;14.60;7.60;;;;;;;;;;5067958;28;20040;-78
2022/05/06 10:21:16;;;;;;;13.63;6.05;;;;;;;;;;5045811;28;20041;-79
2022/05/06 10:23:45;;;;;;;12.18;7.32;;;;;;;;;;5063494;28;20059;-79
2022/05/06 10:26:41;;;;;;;11.73;7.25;;;;;;;;;;5062412;28;20060;-79
2022/05/06 10:35:02;;;;;;;9.55;5.85;;;;;;;;;;5064835;28;20105;-78
2022/05/06 10:37:39;;;;;;;11.32;5.57;;;;;;;;;;5044546;28;20075;-79
2022/05/06 10:40:24;;;;;;;11.85;6.88;;;;;;;;;;5061761;28;20048;-78
2022/05/06 10:42:52;;;;;;;9.98;5.95;;;;;;;;;;5062583;28;20045;-78
2022/05/06 10:45:25;;;;;;;11.05;5.78;;;;;;;;;;5062599;28;20051;-79
2022/05/06 10:47:52;;;;;;;9.55;5.38;;;;;;;;;;5062004;28;20409;-78
2022/05/06 10:50:22;;;;;;;11.77;5.88;;;;;;;;;;5064828;28;20050;-78
2022/05/06 10:52:57;;;;;;;10.82;5.28;;;;;;;;;;5062518;28;20127;-79
2022/05/06 10:55:26;;;;;;;11.57;6.70;;;;;;;;;;5061867;28;20063;-79
2022/05/06 10:58:03;;;;;;;14.50;6.90;;;;;;;;;;5061061;28;20562;-78
2022/05/06 11:00:33;;;;;;;10.68;6.05;;;;;;;;;;5061394;28;20036;-80
2022/05/06 11:03:00;;;;;;;13.10;6.35;;;;;;;;;;5040879;28;20034;-79
2022/05/06 11:05:30;;;;;;;9.23;5.20;;;;;;;;;;5063316;28;20074;-78
2022/05/06 11:08:00;;;;;;;10.90;5.28;;;;;;;;;;5046528;28;20102;-79
2022/05/06 11:10:30;;;;;;;9.73;5.13;;;;;;;;;;5063203;28;20126;-79
2022/05/06 11:13:18;;;;;;;9.35;5.20;;;;;;;;;;5062070;28;20158;-79
2022/05/06 11:15:46;;;;;;;10.93;4.25;;;;;;;;;;5043688;28;20044;-79
2022/05/06 11:18:14;;;;;;;9.50;4.43;;;;;;;;;;5062447;28;20777;-78
2022/05/06 11:20:42;;;;;;;10.40;4.65;;;;;;;;;;5063142;28;20055;-79
2022/05/06 11:23:13;;;;;;;6.57;4.03;;;;;;;;;;5065177;28;20070;-79
2022/05/06 11:25:46;;;;;;;7.70;4.30;;;;;;;;;;5063310;28;20777;-79
2022/05/06 11:28:16;;;;;;;12.38;5.10;;;;;;;;;;5061940;28;20422;-79
2022/05/06 11:30:46;;;;;;;9.45;5.00;;;;;;;;;;5045244;28;20076;-79
2022/05/06 11:33:25;;;;;;;8.65;5.03;;;;;;;;;;5062143;28;21222;-79
2022/05/06 11:36:05;;;;;;;12.35;6.30;;;;;;;;;;5063388;28;20052;-79
2022/05/06 11:38:46;;;;;;;10.50;5.22;;;;;;;;;;5061386;28;20113;-79
2022/05/06 11:41:17;;;;;;;13.35;6.30;;;;;;;;;;5056346;28;20375;-79
2022/05/06 11:43:46;;;;;;;10.68;5.43;;;;;;;;;;5061934;28;20076;-79
2022/05/06 11:49:08;;;;;;;9.98;5.32;;;;;;;;;;5059512;28;20048;-79
2022/05/06 11:51:36;;;;;;;11.45;5.60;;;;;;;;;;5063551;28;20110;-78
2022/05/06 11:54:05;;;;;;;11.80;5.70;;;;;;;;;;5064726;28;20060;-79
2022/05/06 11:56:38;;;;;;;11.02;7.03;;;;;;;;;;5046222;28;20423;-79
2022/05/06 11:59:07;;;;;;;12.55;7.15;;;;;;;;;;5063412;28;20829;-80
2022/05/06 12:01:35;;;;;;;9.32;6.00;;;;;;;;;;5066818;28;20107;-80
2022/05/06 12:04:09;;;;;;;10.45;5.60;;;;;;;;;;5070966;28;20156;-80
2022/05/06 12:06:41;;;;;;;11.37;5.80;;;;;;;;;;5069340;28;20055;-81
2022/05/06 12:09:16;;;;;;;11.45;5.68;;;;;;;;;;5054789;28;20045;-80
2022/05/06 12:11:45;;;;;;;8.00;4.75;;;;;;;;;;5048320;28;20063;-80
2022/05/06 12:14:17;;;;;;;9.25;4.88;;;;;;;;;;5067936;28;20134;-81
2022/05/06 12:16:57;;;;;;;8.25;4.38;;;;;;;;;;5047036;28;20040;-80
2022/05/06 12:19:33;;;;;;;10.68;4.90;;;;;;;;;;5067321;28;20052;-80
2022/05/06 12:22:08;;;;;;;10.57;4.60;;;;;;;;;;5064236;28;20053;-80
2022/05/06 12:24:46;;;;;;;10.25;4.53;;;;;;;;;;5068845;28;20137;-80
2022/05/06 12:27:39;;;;;;;7.03;3.72;;;;;;;;;;5068912;28;20049;-80
2022/05/06 12:30:15;;;;;;;8.98;4.85;;;;;;;;;;5056010;28;20478;-80
2022/05/06 12:32:42;;;;;;;9.10;5.07;;;;;;;;;;5065195;28;20056;-79
2022/05/06 12:35:12;;;;;;;15.85;5.32;;;;;;;;;;5068906;28;20049;-80
2022/05/06 12:37:57;;;;;;;7.93;4.68;;;;;;;;;;5068019;28;20097;-80
2022/05/06 12:40:30;;;;;;;10.45;4.70;;;;;;;;;;5062831;28;20052;-80
2022/05/06 12:43:05;;;;;;;9.68;5.00;;;;;;;;;;5071406;28;20496;-80
2022/05/06 12:45:32;;;;;;;6.35;4.00;;;;;;;;;;5066936;28;20045;-80
2022/05/06 12:50:46;;;;;;;10.43;4.35;;;;;;;;;;5064629;28;20066;-79
2022/05/06 12:53:14;;;;;;;7.68;3.90;;;;;;;;;;5062340;28;20084;-80
2022/05/06 12:55:43;;;;;;;7.40;3.88;;;;;;;;;;5051764;28;20063;-80
2022/05/06 12:58:12;;;;;;;8.27;3.60;;;;;;;;;;5068061;28;20052;-80
2022/05/06 13:00:40;;;;;;;7.50;4.10;;;;;;;;;;5066699;28;20565;-80
2022/05/06 13:03:08;;;;;;;7.00;3.72;;;;;;;;;;5071899;28;20048;-79
2022/05/06 13:05:36;;;;;;;7.63;4.07;;;;;;;;;;5071819;28;20076;-81
2022/05/06 13:08:06;;;;;;;5.68;2.90;;;;;;;;;;5071152;28;20103;-79
2022/05/06 13:10:34;;;;;;;7.25;3.90;;;;;;;;;;5070610;28;20045;-80
2022/05/06 13:13:02;;;;;;;6.53;3.35;;;;;;;;;;5069614;28;20541;-80
2022/05/06 13:15:30;;;;;;;8.25;3.80;;;;;;;;;;5068698;28;20096;-80
2022/05/06 13:17:58;;;;;;;6.90;3.20;;;;;;;;;;5069199;28;20142;-80
2022/05/06 13:20:26;;;;;;;6.68;3.42;;;;;;;;;;5070562;28;20876;-80
2022/05/06 13:22:54;;;;;;;8.80;3.90;;;;;;;;;;5068006;28;20056;-80
2022/05/06 13:25:22;;;;;;;8.73;4.15;;;;;;;;;;5070041;28;20055;-80
2022/05/06 13:27:50;;;;;;;6.75;3.65;;;;;;;;;;5070478;28;20506;-80
2022/05/06 13:30:18;;;;;;;6.55;4.07;;;;;;;;;;5067024;28;20072;-80
2022/05/06 13:32:46;;;;;;;12.20;4.15;;;;;;;;;;5052269;28;20051;-79
2022/05/06 13:35:14;;;;;;;7.43;3.78;;;;;;;;;;5065108;28;20051;-79
2022/05/06 13:37:42;;;;;;;7.20;3.97;;;;;;;;;;5065676;28;20414;-79
2022/05/06 13:40:10;;;;;;;7.85;3.42;;;;;;;;;;5065758;28;20051;-79
2022/05/06 13:42:38;;;;;;;9.07;3.20;;;;;;;;;;5065144;28;20051;-80
2022/05/06 13:45:06;;;;;;;10.38;3.92;;;;;;;;;;5067701;28;20989;-79
2022/05/06 13:47:34;;;;;;;6.57;3.40;;;;;;;;;;5064807;28;20139;-79
2022/05/06 13:50:02;;;;;;;9.18;4.00;;;;;;;;;;5067748;28;20052;-79
2022/05/06 13:52:33;;;;;;;5.55;2.83;;;;;;;;;;5064824;28;20052;-79
2022/05/06 13:55:03;;;;;;;5.13;2.85;;;;;;;;;;5066940;28;20078;-79
2022/05/06 14:00:32;;;;;;;6.70;3.38;;;;;;;;;;5078578;28;20047;-79
2022/05/06 14:03:00;;;;;;;8.23;3.33;;;;;;;;;;5065578;28;20063;-79
2022/05/06 14:05:30;;;;;;;7.43;3.60;;;;;;;;;;5066599;28;20044;-79
2022/05/06 14:08:00;;;;;;;7.53;3.10;;;;;;;;;;5066754;28;20075;-79
2022/05/06 14:10:28;;;;;;;8.45;3.15;;;;;;;;;;5066662;28;20510;-79
2022/05/06 14:12:56;;;;;;;6.95;2.92;;;;;;;;;;5046589;28;20060;-79
2022/05/06 14:15:24;;;;;;;6.97;2.70;;;;;;;;;;5045977;28;20044;-79
2022/05/06 14:17:52;;;;;;;4.78;2.70;;;;;;;;;;5064320;28;20052;-79
2022/05/06 14:20:20;;;;;;;6.47;3.60;;;;;;;;;;5062675;28;20481;-79
2022/05/06 14:22:48;;;;;;;6.32;2.80;;;;;;;;;;5064283;28;20139;-79
2022/05/06 14:25:16;;;;;;;7.05;3.03;;;;;;;;;;5062946;28;20065;-79
2022/05/06 14:27:47;;;;;;;6.00;3.17;;;;;;;;;;5044621;28;20434;-79
2022/05/06 14:30:15;;;;;;;5.18;2.80;;;;;;;;;;5063053;28;20076;-80
2022/05/06 14:32:42;;;;;;;9.40;2.92;;;;;;;;;;5069489;28;20969;-80
2022/05/06 14:35:16;;;;;;;6.38;3.22;;;;;;;;;;5067619;28;20083;-81
2022/05/06 14:37:49;;;;;;;5.32;2.88;;;;;;;;;;5053250;28;20052;-81
2022/05/06 14:40:17;;;;;;;8.02;3.17;;;;;;;;;;5044545;28;20060;-81
2022/05/06 14:42:45;;;;;;;9.10;3.42;;;;;;;;;;5068568;28;20049;-80
2022/05/06 14:45:13;;;;;;;5.40;2.83;;;;;;;;;;5069827;28;20098;-81
2022/05/06 14:47:40;;;;;;;4.95;2.80;;;;;;;;;;5068143;28;20603;-80
2022/05/06 14:50:08;;;;;;;6.40;2.80;;;;;;;;;;5034759;28;20044;-81
2022/05/06 14:52:36;;;;;;;6.65;3.00;;;;;;;;;;5069218;28;20704;-81
2022/05/06 14:55:04;;;;;;;7.20;3.47;;;;;;;;;;5056516;28;20049;-81
2022/05/06 14:57:36;;;;;;;5.88;2.95;;;;;;;;;;5069638;28;20049;-81
2022/05/06 15:00:09;;;;;;;6.88;3.28;;;;;;;;;;5065080;28;20143;-80
2022/05/06 15:02:37;;;;;;;8.25;4.10;;;;;;;;;;5067716;28;20095;-81
2022/05/06 15:05:05;;;;;;;6.68;3.40;;;;;;;;;;5053363;28;20155;-81
2022/05/06 15:07:34;;;;;;;6.38;3.47;;;;;;;;;;5066030;28;20567;-79
2022/05/06 15:10:02;;;;;;;9.20;3.35;;;;;;;;;;5061568;28;20053;-80
2022/05/06 15:12:31;;;;;;;9.15;3.33;;;;;;;;;;5067541;28;20051;-83
2022/05/06 15:14:59;;;;;;;9.23;3.08;;;;;;;;;;5069678;28;20394;-82
2022/05/06 15:17:28;;;;;;;8.55;3.75;;;;;;;;;;5051190;28;20068;-81
2022/05/06 15:19:58;;;;;;;6.18;3.63;;;;;;;;;;5072818;28;20064;-82
2022/05/06 15:22:32;;;;;;;8.00;3.80;;;;;;;;;;5069641;28;20045;-81
2022/05/06 15:25:01;;;;;;;9.70;3.85;;;;;;;;;;5056270;28;20086;-82
2022/05/06 15:27:30;;;;;;;7.57;4.00;;;;;;;;;;5058077;28;20106;-81
2022/05/06 15:29:58;;;;;;;6.47;4.00;;;;;;;;;;5069902;28;20087;-81
2022/05/06 15:32:32;;;;;;;8.05;3.90;;;;;;;;;;5071803;28;20040;-82
2022/05/06 15:35:00;;;;;;;7.22;3.83;;;;;;;;;;5068851;28;20048;-82
2022/05/06 15:37:28;;;;;;;10.07;4.07;;;;;;;;;;5055413;28;20107;-82
2022/05/06 15:39:56;;;;;;;8.80;4.00;;;;;;;;;;5069614;28;20631;-81
2022/05/06 15:42:24;;;;;;;7.93;4.50;;;;;;;;;;5063937;28;20730;-80